Time;durP1;ratioP1;P1;durP2;ratioP2;P2;SDS_P1;SDS_P2;PMS_P1;PMS_P2;Temp;Humidity;BMP_temperature;BMP_pressure;BME280_temperature;BME280_humidity;BME280_pressure;Samples;Min_cycle;Max_cycle;Signal;HPM_P1;HPM_P2
2023/08/14 04:15:47;;;;;;;14.83;12.00;;;;;;;15.61;100.00;100788.81;5572417;32;205955;-90
2023/08/14 04:18:51;;;;;;;12.10;10.90;;;;;;;15.61;100.00;100788.81;5556778;32;35092;-92
2023/08/14 04:21:54;;;;;;;12.32;10.93;;;;;;;15.15;100.00;100790.78;5548820;32;35142;-90
2023/08/14 04:24:57;;;;;;;13.23;10.48;;;;;;;15.19;100.00;100796.78;5561385;32;34773;-92
2023/08/14 04:28:00;;;;;;;16.87;11.55;;;;;;;15.25;100.00;100808.91;5555078;32;34593;-89
2023/08/14 04:31:03;;;;;;;13.98;9.57;;;;;;;15.31;100.00;100801.38;5546409;32;33271;-89
2023/08/14 04:34:06;;;;;;;14.05;9.77;;;;;;;15.39;100.00;100806.19;5545678;32;34287;-89
2023/08/14 04:37:10;;;;;;;13.93;10.27;;;;;;;15.50;100.00;100801.03;5546711;32;33676;-89
2023/08/14 04:40:13;;;;;;;11.95;9.73;;;;;;;15.61;100.00;100808.41;5545978;32;34513;-88
2023/08/14 04:43:16;;;;;;;27.10;9.88;;;;;;;15.70;100.00;100801.56;5546655;32;33543;-88
2023/08/14 04:46:30;;;;;;;16.27;8.98;;;;;;;15.84;100.00;100805.19;5546125;32;33772;-88
2023/08/14 04:49:47;;;;;;;17.05;9.60;;;;;;;16.00;100.00;100800.56;5545967;32;33752;-88
2023/08/14 04:52:49;;;;;;;12.30;9.13;;;;;;;16.26;100.00;100805.12;5545767;32;34502;-88
2023/08/14 04:55:53;;;;;;;13.32;9.43;;;;;;;16.33;100.00;100801.09;5545910;32;34262;-88
2023/08/14 04:58:57;;;;;;;11.88;9.13;;;;;;;16.47;100.00;100805.50;5545647;32;33899;-88
2023/08/14 05:02:00;;;;;;;13.32;8.98;;;;;;;16.59;100.00;100805.66;5546320;32;34050;-88
2023/08/14 05:05:02;;;;;;;11.15;9.20;;;;;;;16.70;100.00;100803.94;5545024;32;33906;-86
2023/08/14 05:08:05;;;;;;;10.13;9.02;;;;;;;16.78;100.00;100811.44;5545723;32;33649;-88
2023/08/14 05:11:08;;;;;;;10.88;9.13;;;;;;;16.91;100.00;100814.16;5546087;32;33840;-88
2023/08/14 05:14:11;;;;;;;8.57;7.70;;;;;;;17.10;100.00;100811.03;5544097;32;33985;-88
2023/08/14 05:17:14;;;;;;;10.85;7.87;;;;;;;17.39;100.00;100817.97;5546064;32;33855;-87
2023/08/14 05:20:17;;;;;;;9.02;7.78;;;;;;;17.56;100.00;100810.53;5547231;32;33726;-87
2023/08/14 05:23:20;;;;;;;9.18;7.50;;;;;;;17.68;100.00;100812.34;5547539;32;34518;-87
2023/08/14 05:26:23;;;;;;;11.73;7.75;;;;;;;17.75;100.00;100824.31;5538710;32;33648;-87
2023/08/14 05:29:26;;;;;;;10.77;7.45;;;;;;;17.84;100.00;100817.44;5534786;32;33672;-87
2023/08/14 05:32:29;;;;;;;8.40;7.57;;;;;;;18.07;100.00;100817.59;5533362;32;33913;-87
2023/08/14 05:35:31;;;;;;;9.25;7.05;;;;;;;18.49;100.00;100821.66;5532725;32;33829;-87
2023/08/14 05:38:34;;;;;;;7.60;6.85;;;;;;;18.65;100.00;100818.66;5532548;32;33838;-90
2023/08/14 05:41:37;;;;;;;9.88;7.05;;;;;;;19.16;100.00;100816.56;5534256;32;34073;-90
2023/08/14 05:44:40;;;;;;;9.13;6.68;;;;;;;19.57;100.00;100824.97;5582063;26;33557;-90
2023/08/14 06:02:44;;;;;;;9.23;7.05;;;;;;;20.52;100.00;100833.41;4875769;30;20715;-87
2023/08/14 06:05:47;;;;;;;8.80;6.85;;;;;;;21.11;100.00;100836.47;5533046;32;33670;-86
2023/08/14 06:08:49;;;;;;;9.73;6.47;;;;;;;21.50;100.00;100843.91;5541331;32;33502;-86
2023/08/14 06:11:52;;;;;;;10.95;6.10;;;;;;;22.17;100.00;100846.06;5537034;32;33930;-86
2023/08/14 06:14:55;;;;;;;9.75;5.82;;;;;;;23.61;100.00;100850.66;5532742;32;34642;-87
2023/08/14 06:17:58;;;;;;;7.32;6.00;;;;;;;25.05;95.14;100852.66;5531920;32;33919;-87
2023/08/14 06:21:01;;;;;;;9.82;6.15;;;;;;;26.12;87.75;100857.69;5532093;32;33834;-87
2023/08/14 06:24:04;;;;;;;12.55;6.03;;;;;;;26.25;87.28;100854.53;5532739;32;33707;-87
2023/08/14 06:27:07;;;;;;;6.68;5.60;;;;;;;26.39;85.06;100852.16;5532087;32;34495;-87
2023/08/14 06:30:11;;;;;;;6.95;6.12;;;;;;;26.47;85.42;100850.28;5534207;32;33686;-87
2023/08/14 06:33:14;;;;;;;6.78;5.82;;;;;;;26.74;83.31;100853.66;5532152;32;34019;-88
2023/08/14 06:36:17;;;;;;;6.80;5.55;;;;;;;26.42;84.49;100849.94;5530465;32;34319;-91
2023/08/14 06:39:20;;;;;;;6.35;5.53;;;;;;;25.69;85.29;100857.75;5530692;32;33864;-91
2023/08/14 06:42:24;;;;;;;7.28;5.72;;;;;;;24.72;92.92;100859.56;5531204;32;34190;-91
2023/08/14 06:45:27;;;;;;;10.73;6.57;;;;;;;24.90;92.11;100867.66;5532684;32;33957;-91
2023/08/14 06:48:32;;;;;;;6.68;5.07;;;;;;;25.23;87.72;100867.03;5531298;32;34061;-88
2023/08/14 06:51:35;;;;;;;8.90;6.25;;;;;;;25.20;86.13;100863.78;5536323;32;33730;-88
2023/08/14 06:54:37;;;;;;;6.00;5.45;;;;;;;25.29;85.39;100870.97;5574893;26;33925;-88
2023/08/14 06:57:40;;;;;;;8.52;6.50;;;;;;;25.58;84.96;100871.66;5526616;32;33156;-87
2023/08/14 07:00:46;;;;;;;19.37;9.23;;;;;;;25.74;85.22;100868.97;5520389;32;35139;-88
2023/08/14 07:03:48;;;;;;;9.27;6.30;;;;;;;26.11;83.84;100873.16;5511842;32;34565;-88
2023/08/14 07:06:52;;;;;;;9.55;5.65;;;;;;;27.13;75.94;100868.44;5531841;26;33618;-88
2023/08/14 07:09:55;;;;;;;8.02;6.00;;;;;;;27.56;73.70;100872.72;5551765;32;33582;-88
2023/08/14 07:16:50;;;;;;;9.68;6.05;;;;;;;26.70;74.29;100865.91;5364352;29;20119;-87
2023/08/14 07:19:54;;;;;;;12.70;5.65;;;;;;;27.24;74.58;100864.47;5548592;26;33801;-87
2023/08/14 07:22:57;;;;;;;9.45;5.18;;;;;;;26.71;72.99;100864.91;5610144;26;33911;-88
2023/08/14 07:26:03;;;;;;;9.82;5.55;;;;;;;27.03;70.34;100857.75;5579351;26;33692;-87
2023/08/14 07:36:36;;;;;;;6.78;5.30;;;;;;;26.36;68.31;100858.78;4933870;29;20167;-87
2023/08/14 07:39:40;;;;;;;9.55;4.55;;;;;;;26.44;67.48;100855.22;5532233;32;34358;-87
2023/08/14 07:42:42;;;;;;;6.43;5.20;;;;;;;26.67;63.90;100866.25;5532296;32;34355;-87
2023/08/14 07:45:45;;;;;;;9.80;5.20;;;;;;;26.67;64.10;100863.53;5533299;32;33804;-87
2023/08/14 07:48:48;;;;;;;9.43;5.03;;;;;;;26.42;68.46;100858.09;5531936;32;33682;-87
2023/08/14 07:51:51;;;;;;;8.07;5.40;;;;;;;26.57;67.49;100855.56;5564671;26;34005;-86
2023/08/14 07:54:54;;;;;;;5.85;5.15;;;;;;;26.71;67.01;100862.19;5593089;26;32055;-86
2023/08/14 07:57:57;;;;;;;9.43;4.93;;;;;;;26.86;64.95;100858.75;5628479;26;34085;-87
2023/08/14 08:00:59;;;;;;;10.63;5.25;;;;;;;27.04;66.13;100858.56;5545889;32;33902;-87
2023/08/14 08:04:03;;;;;;;6.45;5.07;;;;;;;27.11;65.09;100854.13;5535176;32;34132;-87
2023/08/14 08:07:06;;;;;;;6.78;4.87;;;;;;;27.63;63.23;100848.34;5531289;32;34469;-87
2023/08/14 08:10:09;;;;;;;7.03;5.00;;;;;;;27.85;58.54;100857.59;5532151;32;33893;-87
2023/08/14 08:13:11;;;;;;;8.07;4.97;;;;;;;28.53;55.87;100859.72;5540464;32;34603;-87
2023/08/14 08:16:14;;;;;;;5.37;4.87;;;;;;;29.06;56.66;100853.44;5534550;32;33511;-86
2023/08/14 08:19:18;;;;;;;5.55;4.90;;;;;;;29.65;54.60;100857.19;5532013;32;34712;-87
2023/08/14 08:22:21;;;;;;;5.78;4.70;;;;;;;30.28;52.71;100857.69;5532321;32;33817;-87
2023/08/14 08:25:23;;;;;;;14.48;4.95;;;;;;;30.68;51.69;100860.81;5536784;32;34041;-87
2023/08/14 08:28:26;;;;;;;7.03;4.72;;;;;;;31.22;49.22;100857.59;5567657;26;34169;-87
2023/08/14 08:31:29;;;;;;;5.65;4.72;;;;;;;31.81;47.26;100858.06;5572066;26;33707;-87
2023/08/14 08:34:32;;;;;;;7.03;4.87;;;;;;;32.08;48.57;100860.94;5550776;32;34038;-88
2023/08/14 08:37:35;;;;;;;5.80;5.30;;;;;;;32.44;47.14;100861.63;5551502;32;33782;-87
2023/08/14 08:40:41;;;;;;;9.80;5.10;;;;;;;32.87;41.83;100863.09;5550384;32;33822;-87
2023/08/14 08:43:46;;;;;;;9.98;4.40;;;;;;;32.91;40.96;100864.34;5550024;32;34168;-87
2023/08/14 08:46:57;;;;;;;6.65;4.37;;;;;;;33.28;39.09;100869.38;5531310;32;33440;-87
2023/08/14 08:50:01;;;;;;;9.52;5.37;;;;;;;33.41;40.43;100871.22;5539308;32;33499;-87
2023/08/14 08:53:05;;;;;;;8.38;3.70;;;;;;;33.72;36.67;100870.50;5538627;32;34628;-87
2023/08/14 08:56:08;;;;;;;4.45;3.47;;;;;;;33.93;34.57;100871.22;5549422;32;34632;-87
2023/08/14 08:59:11;;;;;;;5.68;3.60;;;;;;;33.97;33.37;100872.47;5553940;32;33748;-87
2023/08/14 09:02:14;;;;;;;5.75;3.78;;;;;;;33.73;33.99;100866.69;5561204;32;33691;-87
2023/08/14 09:05:20;;;;;;;5.30;3.65;;;;;;;33.87;32.66;100866.59;5563472;32;34152;-87
2023/08/14 09:08:23;;;;;;;4.78;4.00;;;;;;;33.56;33.48;100860.84;5580986;26;36051;-87
2023/08/14 09:15:25;;;;;;;4.28;3.87;;;;;;;34.67;33.68;100853.38;4130731;26;20066;-86
2023/08/14 12:31:35;;;;;;;7.40;3.20;;;;;;;31.89;32.86;100730.91;4741834;30;20116;-88
2023/08/14 12:34:39;;;;;;;3.33;3.00;;;;;;;31.97;31.60;100727.97;5493087;32;33661;-89
2023/08/14 12:41:33;;;;;;;3.90;3.50;;;;;;;32.05;33.16;100719.53;4039608;30;20063;-89
2023/08/14 12:44:36;;;;;;;4.32;3.35;;;;;;;32.27;32.75;100706.44;5496110;32;33518;-88
2023/08/14 12:51:31;;;;;;;6.82;3.72;;;;;;;32.27;33.00;100719.28;3983233;30;20382;-88
2023/08/14 12:54:34;;;;;;;4.00;3.53;;;;;;;31.70;33.37;100711.44;5496189;32;34592;-88
2023/08/14 12:57:42;;;;;;;4.07;3.47;;;;;;;31.82;34.40;100709.78;5494074;32;34142;-88
2023/08/14 13:00:45;;;;;;;4.78;4.28;;;;;;;31.84;34.61;100704.94;5494614;32;33848;-88
2023/08/14 13:03:47;;;;;;;5.32;4.07;;;;;;;32.03;34.04;100709.81;5495358;32;33678;-89
2023/08/14 13:06:50;;;;;;;4.07;3.45;;;;;;;31.97;34.43;100706.88;5495560;32;33650;-88
2023/08/14 13:09:53;;;;;;;4.40;3.78;;;;;;;32.24;33.64;100698.59;5505264;32;33432;-88
2023/08/14 13:12:57;;;;;;;3.83;3.40;;;;;;;32.05;34.22;100696.72;5535871;26;34774;-88
2023/08/14 13:16:01;;;;;;;3.60;3.30;;;;;;;31.80;32.98;100695.44;5495523;32;33971;-88
2023/08/14 13:19:05;;;;;;;3.92;3.62;;;;;;;31.96;33.09;100698.84;5495612;32;33895;-88
2023/08/14 13:22:08;;;;;;;8.32;3.80;;;;;;;31.97;33.92;100695.06;5508267;32;33843;-89
2023/08/14 13:25:11;;;;;;;6.35;3.45;;;;;;;31.91;34.14;100695.91;5509504;32;35179;-90
2023/08/14 13:28:13;;;;;;;5.32;3.60;;;;;;;31.97;32.67;100695.06;5508138;32;35430;-89
2023/08/14 13:31:23;;;;;;;4.45;3.70;;;;;;;31.91;34.94;100682.19;5513134;26;34620;-90
2023/08/14 13:34:26;;;;;;;4.43;3.70;;;;;;;31.88;33.31;100677.97;5494882;32;34052;-91
2023/08/14 13:37:29;;;;;;;5.22;3.35;;;;;;;31.77;34.75;100682.13;5542758;26;34898;-89
2023/08/14 13:40:35;;;;;;;4.70;3.83;;;;;;;31.66;35.31;100680.00;5541839;26;33817;-89
2023/08/14 13:43:38;;;;;;;3.83;3.40;;;;;;;31.70;35.73;100679.41;5496398;32;34580;-91
2023/08/14 13:46:41;;;;;;;4.00;3.40;;;;;;;31.51;33.13;100677.50;5498064;32;33412;-91
